Mc Kenzie Bridge, Oregon
Current Conditions -  °F | °C
As of 11:15 AM on Monday 22 Dec 2014 (Local Time) from KBDN Reporting Station
Broken Clouds Broken Clouds  
Wind Chill: 41°   Ceiling: 2500
Heat Index: 41°   Visibility: 10mi
Dew Point: 37°   Wind: 0mph
Humidity: 87%   Direction: NA
Pressure: 30.34"   Gusts: NA
Location:  44.2049°N, 122.069°W
Report Text: KBDN 221915Z AUTO 00000KT 10SM SCT021 BKN025 05/03 A3034 RMK AO2
Loading
Personal Weather Stations






























Interactive Weather Map New forecast layout! Learn more

10-Day Weather Forecast

Advertisements
Track Severe Weather on mobile